Time;durP1;ratioP1;P1;durP2;ratioP2;P2;SDS_P1;SDS_P2;PMS_P1;PMS_P2;Temp;Humidity;BMP_temperature;BMP_pressure;BME280_temperature;BME280_humidity;BME280_pressure;Samples;Min_cycle;Max_cycle;Signal;HPM_P1;HPM_P2
2023/09/14 00:00:44;;;;;;;12.23;11.15;;;;;;;;;;4999551;28;20058;-73
2023/09/14 00:03:10;;;;;;;12.52;11.45;;;;;;;;;;4997615;28;20042;-74
2023/09/14 00:05:43;;;;;;;14.27;11.30;;;;;;;;;;4998680;28;20041;-74
2023/09/14 00:08:09;;;;;;;12.45;11.35;;;;;;;;;;4995545;28;20386;-73
2023/09/14 00:10:36;;;;;;;13.02;11.52;;;;;;;;;;4996899;28;20925;-73
2023/09/14 00:13:01;;;;;;;12.20;11.02;;;;;;;;;;5000029;28;20026;-74
2023/09/14 00:15:27;;;;;;;12.60;11.50;;;;;;;;;;4994682;28;20038;-76
2023/09/14 00:17:53;;;;;;;12.85;11.50;;;;;;;;;;4997622;28;20027;-73
2023/09/14 00:20:22;;;;;;;12.15;10.95;;;;;;;;;;4999861;28;20092;-74
2023/09/14 00:22:53;;;;;;;13.02;11.75;;;;;;;;;;4998426;28;20135;-73
2023/09/14 00:25:22;;;;;;;12.02;10.93;;;;;;;;;;4995055;28;20150;-74
2023/09/14 00:27:48;;;;;;;;;;;;;;;;;;5002609;28;20037;-73
2023/09/14 00:30:13;;;;;;;13.88;12.45;;;;;;;;;;5000623;28;19975;-74
2023/09/14 00:32:40;;;;;;;12.65;11.50;;;;;;;;;;4996189;28;20129;-73
2023/09/14 00:35:12;;;;;;;12.40;11.00;;;;;;;;;;5013326;28;20030;-74
2023/09/14 00:37:39;;;;;;;13.68;11.70;;;;;;;;;;4998862;28;20556;-74
2023/09/14 00:40:08;;;;;;;12.82;11.48;;;;;;;;;;5015787;28;20030;-73
2023/09/14 00:42:45;;;;;;;13.27;11.98;;;;;;;;;;5011712;28;20030;-74
2023/09/14 00:45:13;;;;;;;12.65;11.05;;;;;;;;;;4994025;28;20042;-74
2023/09/14 00:47:41;;;;;;;13.27;11.93;;;;;;;;;;5012066;28;20034;-74
2023/09/14 00:50:07;;;;;;;13.27;11.88;;;;;;;;;;5011931;28;20339;-74
2023/09/14 00:52:35;;;;;;;12.68;11.57;;;;;;;;;;5009970;28;20073;-74
2023/09/14 00:55:03;;;;;;;12.90;11.65;;;;;;;;;;4997891;28;20046;-73
2023/09/14 00:57:30;;;;;;;13.15;11.80;;;;;;;;;;4999426;28;20030;-74
2023/09/14 00:59:55;;;;;;;12.73;11.57;;;;;;;;;;5016546;28;20049;-74
2023/09/14 01:02:21;;;;;;;15.00;11.80;;;;;;;;;;4993626;28;20497;-74
2023/09/14 01:04:47;;;;;;;14.85;12.40;;;;;;;;;;4998372;28;20729;-74
2023/09/14 01:07:15;;;;;;;13.20;11.93;;;;;;;;;;4994014;28;20469;-74
2023/09/14 01:09:40;;;;;;;14.27;12.77;;;;;;;;;;5012543;28;20524;-75
2023/09/14 01:12:08;;;;;;;14.25;12.80;;;;;;;;;;5009307;28;20034;-75
2023/09/14 01:14:56;;;;;;;13.82;12.45;;;;;;;;;;4995689;28;20061;-74
2023/09/14 01:17:34;;;;;;;13.60;12.30;;;;;;;;;;5006551;28;20045;-75
2023/09/14 01:20:41;;;;;;;14.52;13.07;;;;;;;;;;5011541;28;20301;-75
2023/09/14 01:23:46;;;;;;;13.82;12.55;;;;;;;;;;4979147;28;20070;-75
2023/09/14 01:26:14;;;;;;;15.15;13.70;;;;;;;;;;4999966;28;20425;-75
2023/09/14 01:28:40;;;;;;;14.40;13.00;;;;;;;;;;4996188;28;20029;-75
2023/09/14 01:31:05;;;;;;;15.02;13.10;;;;;;;;;;4995094;28;20034;-75
2023/09/14 01:33:31;;;;;;;14.30;12.90;;;;;;;;;;4998393;28;20038;-74
2023/09/14 01:36:31;;;;;;;14.45;13.02;;;;;;;;;;5011639;28;20025;-75
2023/09/14 01:38:57;;;;;;;15.75;13.65;;;;;;;;;;4992487;28;20034;-75
2023/09/14 01:41:23;;;;;;;15.00;13.52;;;;;;;;;;5015199;28;20045;-75
2023/09/14 01:43:51;;;;;;;14.60;13.27;;;;;;;;;;4997466;28;20026;-75
2023/09/14 01:46:17;;;;;;;15.32;12.82;;;;;;;;;;5012452;28;20899;-75
2023/09/14 01:48:44;;;;;;;16.15;13.55;;;;;;;;;;4997669;28;20049;-74
2023/09/14 01:51:09;;;;;;;16.17;14.52;;;;;;;;;;4996420;28;20117;-74
2023/09/14 01:53:35;;;;;;;16.42;14.85;;;;;;;;;;5013610;28;20112;-75
2023/09/14 01:56:01;;;;;;;15.43;13.90;;;;;;;;;;5000795;28;20784;-74
2023/09/14 01:58:29;;;;;;;15.95;14.48;;;;;;;;;;5016075;28;20657;-75
2023/09/14 02:00:56;;;;;;;15.65;14.05;;;;;;;;;;5014215;28;20028;-73
2023/09/14 02:03:22;;;;;;;16.25;14.60;;;;;;;;;;5016079;28;21848;-74
2023/09/14 02:05:57;;;;;;;15.77;14.27;;;;;;;;;;5016653;28;20038;-75
2023/09/14 02:08:23;;;;;;;16.10;14.50;;;;;;;;;;5012298;28;20052;-75
2023/09/14 02:10:49;;;;;;;18.75;15.05;;;;;;;;;;4998439;28;20513;-74
2023/09/14 02:13:15;;;;;;;16.33;14.63;;;;;;;;;;5000909;28;20108;-75
2023/09/14 02:15:40;;;;;;;16.98;15.18;;;;;;;;;;5016010;28;20033;-75
2023/09/14 02:18:06;;;;;;;15.70;14.10;;;;;;;;;;4997750;28;20033;-74
2023/09/14 02:20:34;;;;;;;17.95;14.82;;;;;;;;;;4997334;28;20029;-74
2023/09/14 02:23:00;;;;;;;15.90;14.40;;;;;;;;;;4997639;28;20159;-75
2023/09/14 02:25:25;;;;;;;16.38;14.63;;;;;;;;;;4999238;28;20443;-74
2023/09/14 02:27:51;;;;;;;15.73;13.93;;;;;;;;;;4998786;28;20046;-75
2023/09/14 02:30:17;;;;;;;16.15;14.55;;;;;;;;;;5000581;28;20117;-75
2023/09/14 02:32:42;;;;;;;15.82;14.27;;;;;;;;;;4992304;28;20041;-74
2023/09/14 02:35:08;;;;;;;15.48;14.07;;;;;;;;;;4994985;28;20030;-74
2023/09/14 02:37:33;;;;;;;15.23;13.63;;;;;;;;;;4992067;28;20184;-75
2023/09/14 02:39:59;;;;;;;19.15;14.00;;;;;;;;;;4999558;28;20037;-75
2023/09/14 02:42:24;;;;;;;14.88;13.32;;;;;;;;;;4989901;28;20053;-75
2023/09/14 02:44:50;;;;;;;16.25;14.50;;;;;;;;;;5011425;28;20104;-75
2023/09/14 02:47:15;;;;;;;16.10;14.38;;;;;;;;;;4993146;28;20034;-75
2023/09/14 02:49:41;;;;;;;16.23;13.15;;;;;;;;;;4994706;28;21660;-75
2023/09/14 02:52:07;;;;;;;19.98;13.95;;;;;;;;;;5006498;28;20027;-75
2023/09/14 02:54:32;;;;;;;14.95;13.40;;;;;;;;;;4998389;28;20037;-75
2023/09/14 02:56:58;;;;;;;18.02;14.07;;;;;;;;;;5007888;28;20158;-75
2023/09/14 02:59:23;;;;;;;15.93;13.98;;;;;;;;;;5011049;28;20122;-75
2023/09/14 03:01:49;;;;;;;15.45;13.65;;;;;;;;;;5006382;28;20026;-75
2023/09/14 03:04:16;;;;;;;13.80;12.40;;;;;;;;;;5015839;28;20034;-74
2023/09/14 03:06:43;;;;;;;14.32;12.93;;;;;;;;;;4997324;28;20046;-75
2023/09/14 03:09:09;;;;;;;14.40;13.00;;;;;;;;;;4993913;28;20034;-75
2023/09/14 03:11:34;;;;;;;15.88;14.13;;;;;;;;;;4991505;28;20160;-75
2023/09/14 03:14:01;;;;;;;15.88;12.75;;;;;;;;;;5009681;28;20026;-74
2023/09/14 03:16:27;;;;;;;14.13;12.80;;;;;;;;;;4991918;28;20079;-75
2023/09/14 03:18:53;;;;;;;14.45;13.00;;;;;;;;;;5007820;28;20041;-75
2023/09/14 03:21:24;;;;;;;13.95;12.57;;;;;;;;;;5006350;28;20038;-75
2023/09/14 03:23:50;;;;;;;14.27;12.80;;;;;;;;;;5003705;28;20038;-75
2023/09/14 03:26:16;;;;;;;12.77;11.57;;;;;;;;;;4994889;28;20041;-74
2023/09/14 03:28:42;;;;;;;12.93;11.63;;;;;;;;;;4997505;28;20042;-75
2023/09/14 03:31:09;;;;;;;19.23;12.52;;;;;;;;;;4992980;28;20081;-75
2023/09/14 03:33:34;;;;;;;13.27;12.07;;;;;;;;;;5001608;28;20114;-75
2023/09/14 03:36:01;;;;;;;13.52;12.23;;;;;;;;;;4997308;28;20144;-75
2023/09/14 03:38:28;;;;;;;13.43;12.13;;;;;;;;;;4994437;28;20038;-75
2023/09/14 03:40:54;;;;;;;12.95;11.82;;;;;;;;;;5002324;28;20061;-75
2023/09/14 03:43:20;;;;;;;13.85;12.50;;;;;;;;;;4996694;28;20676;-74
2023/09/14 03:45:46;;;;;;;13.13;11.82;;;;;;;;;;5012904;28;20044;-74
2023/09/14 03:48:12;;;;;;;12.00;11.00;;;;;;;;;;4992397;28;20050;-75
2023/09/14 03:50:38;;;;;;;12.80;11.80;;;;;;;;;;5012148;28;20044;-75
2023/09/14 03:53:04;;;;;;;13.07;11.88;;;;;;;;;;4998925;28;20034;-75
2023/09/14 03:55:30;;;;;;;13.10;11.93;;;;;;;;;;4993904;28;20029;-74
2023/09/14 03:57:56;;;;;;;13.32;12.10;;;;;;;;;;4998478;28;20152;-75
2023/09/14 04:00:21;;;;;;;12.65;11.45;;;;;;;;;;5002797;28;20049;-75
2023/09/14 04:02:47;;;;;;;13.95;12.40;;;;;;;;;;5015926;28;20049;-75
2023/09/14 04:05:15;;;;;;;13.23;11.88;;;;;;;;;;4993735;28;20069;-74
2023/09/14 04:07:41;;;;;;;12.55;11.40;;;;;;;;;;5015884;28;20052;-74
2023/09/14 04:10:09;;;;;;;12.77;11.68;;;;;;;;;;5003942;28;20037;-74
2023/09/14 04:12:42;;;;;;;12.68;11.68;;;;;;;;;;5015887;28;20049;-75
2023/09/14 04:15:09;;;;;;;13.32;12.13;;;;;;;;;;4995744;28;20087;-75
2023/09/14 04:17:35;;;;;;;12.80;11.68;;;;;;;;;;5004727;28;20044;-75
2023/09/14 04:20:05;;;;;;;13.18;12.10;;;;;;;;;;5016994;28;20041;-75
2023/09/14 04:22:30;;;;;;;13.23;12.00;;;;;;;;;;5013723;28;20494;-74
2023/09/14 04:24:56;;;;;;;13.40;12.02;;;;;;;;;;4997732;28;20063;-75
2023/09/14 04:27:22;;;;;;;13.52;12.43;;;;;;;;;;5017838;28;20042;-74
2023/09/14 04:29:48;;;;;;;13.68;12.43;;;;;;;;;;5001253;28;20034;-75
2023/09/14 04:32:14;;;;;;;13.48;12.38;;;;;;;;;;4996267;28;20037;-75
2023/09/14 04:34:39;;;;;;;12.80;11.45;;;;;;;;;;5017009;28;20418;-74
2023/09/14 04:37:05;;;;;;;13.30;12.10;;;;;;;;;;5000100;28;20061;-75
2023/09/14 04:39:31;;;;;;;13.25;12.18;;;;;;;;;;5001669;28;20416;-75
2023/09/14 04:41:57;;;;;;;12.90;11.75;;;;;;;;;;5011208;28;20041;-76
2023/09/14 04:44:23;;;;;;;12.90;11.68;;;;;;;;;;5001590;28;20044;-76
2023/09/14 04:46:48;;;;;;;12.75;11.75;;;;;;;;;;5003838;28;20449;-76
2023/09/14 04:49:14;;;;;;;13.40;12.07;;;;;;;;;;5002335;28;20109;-75
2023/09/14 04:51:39;;;;;;;13.00;11.80;;;;;;;;;;5014007;28;20209;-76
2023/09/14 04:54:05;;;;;;;13.18;12.07;;;;;;;;;;5014577;28;20034;-76
2023/09/14 04:56:32;;;;;;;13.35;12.25;;;;;;;;;;5004803;28;20389;-76
2023/09/14 04:58:58;;;;;;;12.93;11.93;;;;;;;;;;5002686;28;20486;-76
2023/09/14 05:01:23;;;;;;;13.43;12.13;;;;;;;;;;4998318;28;20650;-76
2023/09/14 05:03:49;;;;;;;12.40;11.40;;;;;;;;;;4999393;28;20103;-76
2023/09/14 05:06:15;;;;;;;12.27;11.27;;;;;;;;;;4998210;28;20489;-76
2023/09/14 05:08:41;;;;;;;12.25;11.20;;;;;;;;;;4996290;28;20049;-76
2023/09/14 05:11:06;;;;;;;12.75;11.70;;;;;;;;;;5013522;28;20080;-76
2023/09/14 05:13:32;;;;;;;12.25;11.23;;;;;;;;;;5000399;28;20088;-76
2023/09/14 05:15:57;;;;;;;12.88;11.68;;;;;;;;;;5003971;28;20433;-76
2023/09/14 05:18:25;;;;;;;12.95;11.77;;;;;;;;;;4998149;28;20039;-76
2023/09/14 05:20:51;;;;;;;14.43;11.68;;;;;;;;;;5015109;28;20038;-76
2023/09/14 05:23:17;;;;;;;12.15;11.10;;;;;;;;;;5020753;28;20033;-76
2023/09/14 05:25:43;;;;;;;12.18;11.05;;;;;;;;;;4994870;28;20060;-76
2023/09/14 05:28:09;;;;;;;14.60;11.13;;;;;;;;;;4996263;28;20136;-76
2023/09/14 05:30:35;;;;;;;12.82;11.63;;;;;;;;;;4999227;28;20033;-76
2023/09/14 05:33:01;;;;;;;13.38;11.18;;;;;;;;;;4997539;28;20493;-76
2023/09/14 05:35:27;;;;;;;12.38;11.43;;;;;;;;;;4999178;28;20054;-76
2023/09/14 05:37:52;;;;;;;12.18;11.18;;;;;;;;;;5013794;28;20093;-76
2023/09/14 05:40:18;;;;;;;12.38;11.27;;;;;;;;;;4995873;28;20050;-75
2023/09/14 05:42:44;;;;;;;13.55;11.70;;;;;;;;;;5000762;28;20045;-75
2023/09/14 05:45:11;;;;;;;13.40;12.00;;;;;;;;;;4997877;28;20037;-75
2023/09/14 05:47:38;;;;;;;13.15;11.95;;;;;;;;;;5014591;28;20033;-75
2023/09/14 05:50:06;;;;;;;12.35;11.40;;;;;;;;;;5015814;28;20032;-75
2023/09/14 05:52:32;;;;;;;12.60;11.35;;;;;;;;;;5000711;28;20449;-75
2023/09/14 05:54:58;;;;;;;13.02;11.75;;;;;;;;;;5000936;28;20034;-75
2023/09/14 05:57:24;;;;;;;12.90;11.68;;;;;;;;;;5012356;28;20034;-75
2023/09/14 05:59:50;;;;;;;11.88;10.88;;;;;;;;;;4998219;28;20100;-75
2023/09/14 06:02:18;;;;;;;13.32;12.02;;;;;;;;;;5000995;28;20033;-75
2023/09/14 06:04:44;;;;;;;12.65;11.25;;;;;;;;;;5016231;28;20046;-75
2023/09/14 06:07:09;;;;;;;14.20;12.13;;;;;;;;;;5000225;28;20092;-75
2023/09/14 06:09:35;;;;;;;13.13;12.02;;;;;;;;;;4995754;28;20050;-75
2023/09/14 06:12:01;;;;;;;13.88;12.45;;;;;;;;;;5001989;28;20080;-76
2023/09/14 06:14:28;;;;;;;14.00;12.70;;;;;;;;;;5016082;28;20037;-75
2023/09/14 06:16:54;;;;;;;14.35;12.82;;;;;;;;;;4999120;28;20120;-75
2023/09/14 06:19:19;;;;;;;15.18;13.70;;;;;;;;;;4996225;28;20105;-75
2023/09/14 06:21:45;;;;;;;14.48;13.07;;;;;;;;;;5000649;28;20045;-76
2023/09/14 06:24:11;;;;;;;13.25;12.05;;;;;;;;;;4998708;28;20161;-75
2023/09/14 06:26:36;;;;;;;14.35;13.10;;;;;;;;;;4999298;28;20474;-75
2023/09/14 06:29:02;;;;;;;13.95;12.60;;;;;;;;;;5001384;28;20038;-76
2023/09/14 06:31:27;;;;;;;14.07;12.77;;;;;;;;;;5002019;28;20484;-76
2023/09/14 06:33:53;;;;;;;17.08;13.75;;;;;;;;;;5000410;28;20104;-75
2023/09/14 06:36:19;;;;;;;15.85;14.23;;;;;;;;;;4996910;28;20038;-76
2023/09/14 06:38:45;;;;;;;14.65;13.18;;;;;;;;;;4998733;28;20544;-76
2023/09/14 06:41:15;;;;;;;15.30;13.90;;;;;;;;;;5000718;28;20052;-75
2023/09/14 06:43:40;;;;;;;;;;;;;;;;;;4998011;28;20183;-76
2023/09/14 06:46:07;;;;;;;14.90;13.38;;;;;;;;;;4994907;28;20009;-75
2023/09/14 06:48:34;;;;;;;14.70;13.30;;;;;;;;;;4999835;28;20592;-76
2023/09/14 06:51:00;;;;;;;15.43;14.00;;;;;;;;;;4999859;28;20679;-76
2023/09/14 06:53:26;;;;;;;15.57;14.07;;;;;;;;;;4999293;28;20030;-76
2023/09/14 06:55:51;;;;;;;15.90;14.32;;;;;;;;;;4994504;28;20034;-75
2023/09/14 06:58:17;;;;;;;13.68;12.38;;;;;;;;;;4998781;28;20135;-76
2023/09/14 07:00:42;;;;;;;14.05;12.60;;;;;;;;;;4998961;28;20473;-76
2023/09/14 07:03:08;;;;;;;13.85;12.57;;;;;;;;;;4999978;28;20038;-75
2023/09/14 07:05:35;;;;;;;13.90;12.18;;;;;;;;;;4999226;28;20588;-75
2023/09/14 07:08:00;;;;;;;13.98;12.63;;;;;;;;;;5000031;28;20050;-76
2023/09/14 07:10:26;;;;;;;13.45;12.27;;;;;;;;;;4994689;28;20104;-75
2023/09/14 07:12:52;;;;;;;13.20;12.10;;;;;;;;;;5000264;28;20145;-76
2023/09/14 07:15:17;;;;;;;13.85;12.45;;;;;;;;;;4998804;28;20091;-75
2023/09/14 07:17:43;;;;;;;13.35;12.18;;;;;;;;;;4997809;28;20132;-75
2023/09/14 07:20:09;;;;;;;13.48;12.27;;;;;;;;;;4995112;28;20042;-76
2023/09/14 07:22:35;;;;;;;12.32;11.32;;;;;;;;;;4997675;28;20037;-76
2023/09/14 07:25:02;;;;;;;13.35;11.88;;;;;;;;;;4995571;28;20049;-76
2023/09/14 07:27:28;;;;;;;13.23;11.90;;;;;;;;;;4992520;28;20097;-76
2023/09/14 07:29:54;;;;;;;13.27;12.13;;;;;;;;;;5000056;28;20038;-76
2023/09/14 07:32:20;;;;;;;12.50;11.23;;;;;;;;;;4996462;28;20505;-76
2023/09/14 07:34:45;;;;;;;12.43;11.32;;;;;;;;;;4999775;28;20025;-75
2023/09/14 07:37:11;;;;;;;13.27;11.95;;;;;;;;;;4998954;28;20037;-76
2023/09/14 07:39:36;;;;;;;12.68;11.48;;;;;;;;;;4997490;28;20406;-76
2023/09/14 07:42:02;;;;;;;11.43;10.43;;;;;;;;;;5004887;28;20447;-76
2023/09/14 07:44:28;;;;;;;13.52;12.23;;;;;;;;;;4999551;28;20615;-76
2023/09/14 07:46:53;;;;;;;13.95;12.82;;;;;;;;;;5003500;28;20121;-76
2023/09/14 07:49:19;;;;;;;14.23;13.00;;;;;;;;;;5006654;28;20087;-76
2023/09/14 07:51:45;;;;;;;13.93;12.00;;;;;;;;;;5007778;28;20486;-75
2023/09/14 07:54:10;;;;;;;14.30;12.90;;;;;;;;;;5000247;28;20496;-76
2023/09/14 07:56:36;;;;;;;13.80;12.60;;;;;;;;;;5004572;28;20467;-76
2023/09/14 07:59:01;;;;;;;13.88;12.52;;;;;;;;;;5001370;28;20042;-76
2023/09/14 08:01:27;;;;;;;14.85;13.32;;;;;;;;;;4998073;28;20567;-76
2023/09/14 08:03:53;;;;;;;14.98;13.48;;;;;;;;;;5000301;28;20036;-76
2023/09/14 08:06:21;;;;;;;14.73;13.23;;;;;;;;;;4988680;28;20144;-76
2023/09/14 08:08:47;;;;;;;14.52;13.05;;;;;;;;;;4992228;28;20061;-76
2023/09/14 08:11:13;;;;;;;17.48;12.63;;;;;;;;;;5001973;28;20588;-76
2023/09/14 08:13:38;;;;;;;13.48;12.15;;;;;;;;;;4999579;28;20498;-76
2023/09/14 08:16:05;;;;;;;13.88;12.43;;;;;;;;;;4994228;28;20483;-76
2023/09/14 08:18:30;;;;;;;13.35;11.95;;;;;;;;;;4999987;28;20042;-76
2023/09/14 08:20:56;;;;;;;15.60;13.15;;;;;;;;;;4998830;28;20030;-76
2023/09/14 08:23:22;;;;;;;13.73;12.43;;;;;;;;;;4992222;28;20124;-76
2023/09/14 08:25:48;;;;;;;14.20;12.02;;;;;;;;;;4990412;28;20653;-76
2023/09/14 08:28:15;;;;;;;12.57;11.38;;;;;;;;;;4995303;28;20069;-76
2023/09/14 08:30:42;;;;;;;14.18;12.77;;;;;;;;;;4994845;28;20109;-76
2023/09/14 08:33:08;;;;;;;13.80;12.35;;;;;;;;;;4993017;28;20037;-76
2023/09/14 08:35:35;;;;;;;13.43;12.20;;;;;;;;;;4997653;28;20555;-77
2023/09/14 08:38:03;;;;;;;13.02;11.77;;;;;;;;;;4992483;28;20042;-76
2023/09/14 08:40:29;;;;;;;14.60;13.23;;;;;;;;;;4999392;28;20041;-76
2023/09/14 08:42:57;;;;;;;16.55;12.98;;;;;;;;;;4993284;28;20524;-76
2023/09/14 08:45:24;;;;;;;14.25;12.75;;;;;;;;;;4996856;28;20132;-76
2023/09/14 08:47:50;;;;;;;15.02;13.52;;;;;;;;;;4997408;28;20507;-76
2023/09/14 08:50:22;;;;;;;14.65;13.23;;;;;;;;;;4996949;28;20034;-76
2023/09/14 08:52:48;;;;;;;15.25;13.80;;;;;;;;;;4997884;28;20069;-76
2023/09/14 08:55:16;;;;;;;16.42;13.60;;;;;;;;;;4986475;28;20502;-76
2023/09/14 08:57:46;;;;;;;15.73;12.93;;;;;;;;;;4993329;28;20048;-76
2023/09/14 09:00:17;;;;;;;15.85;13.57;;;;;;;;;;4994426;28;20120;-76
2023/09/14 09:02:48;;;;;;;14.45;13.15;;;;;;;;;;4986764;28;20236;-77
2023/09/14 09:05:16;;;;;;;13.57;12.38;;;;;;;;;;4985133;28;20421;-76
2023/09/14 09:07:43;;;;;;;13.82;12.52;;;;;;;;;;4994301;28;20046;-76
2023/09/14 09:10:31;;;;;;;13.77;12.50;;;;;;;;;;4994011;28;20135;-76
2023/09/14 09:13:01;;;;;;;14.73;13.35;;;;;;;;;;4997176;28;20040;-76
2023/09/14 09:15:28;;;;;;;13.82;12.52;;;;;;;;;;4996442;28;20036;-76
2023/09/14 09:18:04;;;;;;;14.23;12.98;;;;;;;;;;4989489;28;20045;-76
2023/09/14 09:20:30;;;;;;;14.65;13.25;;;;;;;;;;4993430;28;20033;-76
2023/09/14 09:22:59;;;;;;;15.10;13.50;;;;;;;;;;4993540;28;20035;-76
2023/09/14 09:25:25;;;;;;;;;;;;;;;;;;4989874;28;20029;-76
2023/09/14 09:28:02;;;;;;;14.38;12.88;;;;;;;;;;4992830;28;19922;-76
2023/09/14 09:30:32;;;;;;;13.65;12.35;;;;;;;;;;4993309;28;20643;-75
2023/09/14 09:32:57;;;;;;;13.50;12.15;;;;;;;;;;4992230;28;20041;-75
2023/09/14 09:35:25;;;;;;;13.02;11.73;;;;;;;;;;4995826;28;20161;-75
2023/09/14 09:37:55;;;;;;;14.93;12.85;;;;;;;;;;4988722;28;20464;-75
2023/09/14 09:40:22;;;;;;;14.93;13.38;;;;;;;;;;4988385;28;20529;-75
2023/09/14 09:42:49;;;;;;;14.68;13.32;;;;;;;;;;4989783;28;20489;-75
2023/09/14 09:45:14;;;;;;;14.05;12.75;;;;;;;;;;4989109;28;20431;-75
2023/09/14 09:47:41;;;;;;;14.40;13.00;;;;;;;;;;4991251;28;20041;-75
2023/09/14 09:50:12;;;;;;;15.07;13.52;;;;;;;;;;4996595;28;20113;-75
2023/09/14 09:52:39;;;;;;;14.45;13.02;;;;;;;;;;4984071;28;20512;-76
2023/09/14 09:55:06;;;;;;;14.40;12.98;;;;;;;;;;4993735;28;20049;-76
2023/09/14 09:57:36;;;;;;;14.60;13.27;;;;;;;;;;4987314;28;20046;-76
2023/09/14 10:00:12;;;;;;;14.23;12.85;;;;;;;;;;5005539;28;20125;-76
2023/09/14 10:02:39;;;;;;;13.43;12.13;;;;;;;;;;4988676;28;20915;-76
2023/09/14 10:05:05;;;;;;;13.32;12.00;;;;;;;;;;4991144;28;20038;-76
2023/09/14 10:07:36;;;;;;;13.18;11.98;;;;;;;;;;4987386;28;20073;-76
2023/09/14 10:10:02;;;;;;;13.90;12.43;;;;;;;;;;5001603;28;20069;-76
2023/09/14 10:12:30;;;;;;;13.75;12.55;;;;;;;;;;4990322;28;20470;-76
2023/09/14 10:15:04;;;;;;;14.93;13.10;;;;;;;;;;4989944;28;20049;-76
2023/09/14 10:17:30;;;;;;;14.38;12.88;;;;;;;;;;4995624;28;20033;-76
2023/09/14 10:19:59;;;;;;;13.45;12.15;;;;;;;;;;4988128;28;20042;-76
2023/09/14 10:22:26;;;;;;;;;;;;;;;;;;5006102;28;20053;-76
2023/09/14 10:24:53;;;;;;;14.13;12.55;;;;;;;;;;4997024;28;19921;-76
2023/09/14 10:27:19;;;;;;;14.73;13.05;;;;;;;;;;4990985;28;20042;-77
2023/09/14 10:29:44;;;;;;;12.90;11.70;;;;;;;;;;4988682;28;20108;-76
2023/09/14 10:32:11;;;;;;;13.18;11.98;;;;;;;;;;4990157;28;20097;-76
2023/09/14 10:34:41;;;;;;;12.45;11.27;;;;;;;;;;4985314;28;20040;-77
2023/09/14 10:37:11;;;;;;;15.75;14.25;;;;;;;;;;4997011;28;20037;-76
2023/09/14 10:39:40;;;;;;;11.90;10.85;;;;;;;;;;4993186;28;20041;-77
2023/09/14 10:42:06;;;;;;;12.55;11.45;;;;;;;;;;4994028;28;20026;-76
2023/09/14 10:44:32;;;;;;;12.77;11.60;;;;;;;;;;4991136;28;20049;-76
2023/09/14 10:47:01;;;;;;;12.70;11.57;;;;;;;;;;4996280;28;20038;-76
2023/09/14 10:49:53;;;;;;;13.88;12.57;;;;;;;;;;4995830;28;20034;-76
2023/09/14 10:52:24;;;;;;;12.88;11.57;;;;;;;;;;4990509;28;20665;-76
2023/09/14 10:54:50;;;;;;;13.13;11.95;;;;;;;;;;4986435;28;20045;-76
2023/09/14 10:57:23;;;;;;;12.10;11.05;;;;;;;;;;4992092;28;20033;-76
2023/09/14 10:59:53;;;;;;;12.52;11.27;;;;;;;;;;4993927;28;20049;-76
2023/09/14 11:02:38;;;;;;;11.85;10.75;;;;;;;;;;4995465;28;20046;-76
2023/09/14 11:05:24;;;;;;;12.73;11.55;;;;;;;;;;4989298;28;20078;-76
2023/09/14 11:07:55;;;;;;;11.50;10.60;;;;;;;;;;4989285;28;20052;-76
2023/09/14 11:10:22;;;;;;;11.18;10.10;;;;;;;;;;4996308;28;20349;-76
2023/09/14 11:12:49;;;;;;;11.20;10.20;;;;;;;;;;4997613;28;20041;-76
2023/09/14 11:15:22;;;;;;;11.73;10.68;;;;;;;;;;4996069;28;20042;-76
2023/09/14 11:17:53;;;;;;;11.32;10.35;;;;;;;;;;4996237;28;20026;-76
2023/09/14 11:20:19;;;;;;;10.77;9.63;;;;;;;;;;4995965;28;20387;-76
2023/09/14 11:22:45;;;;;;;10.88;9.93;;;;;;;;;;4996375;28;20560;-76
2023/09/14 11:25:11;;;;;;;12.10;11.02;;;;;;;;;;4991777;28;20029;-76
2023/09/14 11:27:36;;;;;;;11.73;10.57;;;;;;;;;;4999835;28;20038;-76
2023/09/14 11:30:14;;;;;;;11.52;10.52;;;;;;;;;;4996290;28;20034;-76
2023/09/14 11:32:41;;;;;;;11.17;10.30;;;;;;;;;;5003892;28;20034;-76
2023/09/14 11:35:07;;;;;;;10.10;9.20;;;;;;;;;;4992781;28;20046;-76
2023/09/14 11:37:34;;;;;;;9.95;9.15;;;;;;;;;;4993164;28;20026;-76
2023/09/14 11:40:01;;;;;;;9.88;8.98;;;;;;;;;;4995270;28;20030;-76
2023/09/14 11:45:49;;;;;;;10.55;9.70;;;;;;;;;;4992500;28;20029;-76
2023/09/14 11:48:17;;;;;;;11.10;9.70;;;;;;;;;;4996143;28;20057;-76
2023/09/14 11:50:50;;;;;;;10.65;9.63;;;;;;;;;;4997601;28;20030;-76
2023/09/14 11:53:18;;;;;;;10.48;9.73;;;;;;;;;;4989797;28;20460;-76
2023/09/14 11:55:50;;;;;;;9.77;8.98;;;;;;;;;;4998007;28;20572;-76
2023/09/14 11:58:17;;;;;;;9.73;9.00;;;;;;;;;;5000085;28;20283;-76
2023/09/14 12:00:47;;;;;;;10.85;9.90;;;;;;;;;;4996049;28;20034;-76
2023/09/14 12:03:13;;;;;;;10.70;9.82;;;;;;;;;;4993757;28;20037;-76
2023/09/14 12:05:38;;;;;;;10.35;9.55;;;;;;;;;;4994998;28;20034;-76
2023/09/14 12:08:11;;;;;;;9.82;9.13;;;;;;;;;;4995109;28;20560;-76
2023/09/14 12:10:37;;;;;;;10.10;9.30;;;;;;;;;;4995804;28;20103;-76
2023/09/14 12:13:15;;;;;;;10.80;9.80;;;;;;;;;;4990691;28;20273;-76
2023/09/14 12:15:42;;;;;;;10.68;9.88;;;;;;;;;;4991837;28;20037;-76
2023/09/14 12:18:10;;;;;;;10.93;9.93;;;;;;;;;;4990638;28;20884;-76
2023/09/14 12:20:38;;;;;;;9.95;9.10;;;;;;;;;;4990771;28;20080;-76
2023/09/14 12:23:04;;;;;;;9.98;9.05;;;;;;;;;;4995552;28;20116;-76
2023/09/14 12:25:31;;;;;;;13.52;9.43;;;;;;;;;;4995162;28;20402;-76
2023/09/14 12:27:59;;;;;;;11.52;9.20;;;;;;;;;;4997617;28;20037;-76
2023/09/14 12:30:25;;;;;;;9.80;8.97;;;;;;;;;;4989599;28;20099;-76
2023/09/14 12:32:50;;;;;;;9.75;8.95;;;;;;;;;;4997665;28;20053;-75
2023/09/14 12:35:17;;;;;;;10.23;9.32;;;;;;;;;;4999428;28;20041;-76
2023/09/14 12:37:43;;;;;;;9.55;8.63;;;;;;;;;;4994585;28;20041;-76
2023/09/14 12:40:10;;;;;;;9.95;9.23;;;;;;;;;;4995865;28;20096;-75
2023/09/14 12:42:37;;;;;;;9.80;8.80;;;;;;;;;;4994983;28;20516;-75
2023/09/14 12:45:11;;;;;;;9.63;8.85;;;;;;;;;;5012046;28;20092;-76
2023/09/14 12:47:37;;;;;;;9.80;9.00;;;;;;;;;;4995007;28;20575;-76
2023/09/14 12:50:04;;;;;;;10.05;9.18;;;;;;;;;;4990706;28;20044;-75
2023/09/14 12:52:31;;;;;;;8.93;8.25;;;;;;;;;;4998178;28;20065;-75
2023/09/14 12:55:05;;;;;;;9.15;8.45;;;;;;;;;;4994594;28;20547;-76
2023/09/14 12:57:35;;;;;;;9.50;8.70;;;;;;;;;;4990268;28;20370;-75
2023/09/14 13:00:12;;;;;;;9.10;8.30;;;;;;;;;;4997943;28;20064;-76
2023/09/14 13:02:42;;;;;;;9.20;8.48;;;;;;;;;;4996856;28;20038;-76
2023/09/14 13:05:08;;;;;;;8.75;8.20;;;;;;;;;;4995052;28;20042;-76
2023/09/14 13:07:36;;;;;;;9.80;9.05;;;;;;;;;;4994092;28;20045;-76
2023/09/14 13:10:13;;;;;;;9.85;9.10;;;;;;;;;;4988384;28;20035;-76
2023/09/14 13:12:58;;;;;;;9.05;8.35;;;;;;;;;;4994828;28;20123;-76
2023/09/14 13:15:26;;;;;;;8.93;8.32;;;;;;;;;;4992558;28;20402;-76
2023/09/14 13:17:54;;;;;;;10.17;9.37;;;;;;;;;;5012353;28;20072;-76
2023/09/14 13:20:22;;;;;;;9.77;9.05;;;;;;;;;;4991188;28;20042;-76
2023/09/14 13:22:48;;;;;;;10.00;9.10;;;;;;;;;;4990090;28;20042;-76
2023/09/14 13:25:14;;;;;;;10.52;9.55;;;;;;;;;;4994629;28;20406;-75
2023/09/14 13:27:43;;;;;;;10.13;9.23;;;;;;;;;;4997002;28;20405;-75
2023/09/14 13:30:12;;;;;;;9.65;8.75;;;;;;;;;;4993800;28;20038;-75
2023/09/14 13:32:42;;;;;;;10.10;9.13;;;;;;;;;;4994909;28;20030;-78
2023/09/14 13:35:09;;;;;;;9.60;8.90;;;;;;;;;;4993206;28;20194;-76
2023/09/14 13:37:36;;;;;;;9.65;8.85;;;;;;;;;;4989416;28;20062;-76
2023/09/14 13:40:20;;;;;;;9.73;8.93;;;;;;;;;;4994847;28;20088;-76
2023/09/14 13:42:51;;;;;;;10.02;8.68;;;;;;;;;;4994154;28;20030;-76
2023/09/14 13:45:18;;;;;;;9.23;8.60;;;;;;;;;;4990264;28;20038;-76
2023/09/14 13:47:50;;;;;;;9.52;8.63;;;;;;;;;;4992785;28;20208;-76
2023/09/14 13:50:16;;;;;;;9.05;8.30;;;;;;;;;;4991251;28;20034;-75
2023/09/14 13:52:42;;;;;;;9.20;8.40;;;;;;;;;;4993980;28;20038;-76
2023/09/14 13:55:08;;;;;;;9.45;8.63;;;;;;;;;;4992524;28;20209;-76
2023/09/14 13:57:36;;;;;;;9.52;8.82;;;;;;;;;;5009994;28;20055;-76
2023/09/14 14:00:05;;;;;;;9.35;8.70;;;;;;;;;;4994525;28;20121;-76
2023/09/14 14:02:47;;;;;;;9.93;9.13;;;;;;;;;;4991692;28;20037;-75
2023/09/14 14:05:13;;;;;;;9.50;8.70;;;;;;;;;;5007684;28;20046;-76
2023/09/14 14:07:39;;;;;;;9.63;8.90;;;;;;;;;;4991966;28;20390;-75
2023/09/14 14:10:05;;;;;;;9.35;8.65;;;;;;;;;;4998156;28;20063;-76
2023/09/14 14:12:32;;;;;;;9.32;8.57;;;;;;;;;;4993528;28;20165;-76
2023/09/14 14:14:57;;;;;;;9.60;9.00;;;;;;;;;;4995338;28;20109;-75
2023/09/14 14:17:24;;;;;;;10.00;9.20;;;;;;;;;;4994992;28;20521;-75
2023/09/14 14:19:49;;;;;;;9.50;8.55;;;;;;;;;;4995483;28;20034;-76
2023/09/14 14:22:15;;;;;;;9.48;8.77;;;;;;;;;;4993733;28;20037;-76
2023/09/14 14:24:40;;;;;;;9.75;9.10;;;;;;;;;;4993358;28;20034;-76
2023/09/14 14:27:06;;;;;;;9.10;8.50;;;;;;;;;;4997541;28;20121;-75
2023/09/14 14:29:32;;;;;;;10.60;9.48;;;;;;;;;;4998413;28;20068;-75